Time;durP1;ratioP1;P1;durP2;ratioP2;P2;SDS_P1;SDS_P2;PMS_P1;PMS_P2;Temp;Humidity;BMP_temperature;BMP_pressure;BME280_temperature;BME280_humidity;BME280_pressure;Samples;Min_cycle;Max_cycle;Signal;HPM_P1;HPM_P2
2021/12/01 00:00:18;;;;;;;10.23;5.63;;;;;;;-2.84;83.80;98476.63;5033637;28;20439;-85
2021/12/01 00:02:44;;;;;;;10.70;6.03;;;;;;;-2.32;83.98;98541.06;5015743;28;20189;-84
2021/12/01 00:05:10;;;;;;;8.57;5.17;;;;;;;-0.91;83.02;98766.41;5033319;28;20839;-84
2021/12/01 00:07:37;;;;;;;8.57;4.80;;;;;;;-1.29;82.06;98673.22;5033066;28;20214;-84
2021/12/01 00:10:07;;;;;;;9.77;5.80;;;;;;;1.22;82.22;99068.03;5031849;28;20405;-84
2021/12/01 00:12:33;;;;;;;10.67;5.87;;;;;;;1.03;82.52;99045.88;5033541;28;20913;-84
2021/12/01 00:14:59;;;;;;;9.93;6.03;;;;;;;0.77;81.95;98997.34;5033349;28;20889;-83
2021/12/01 00:17:25;;;;;;;9.67;5.50;;;;;;;1.12;82.55;99065.63;5015319;28;20401;-85
2021/12/01 00:19:51;;;;;;;9.73;6.00;;;;;;;0.66;82.66;98975.75;5032981;28;20611;-83
2021/12/01 00:22:17;;;;;;;11.10;6.27;;;;;;;-0.71;82.81;98788.69;5033063;28;20448;-85
2021/12/01 00:24:42;;;;;;;11.40;5.63;;;;;;;-2.31;82.59;98518.03;5015238;28;20416;-85
2021/12/01 00:27:08;;;;;;;9.53;5.77;;;;;;;1.09;82.88;99105.25;5032821;28;20257;-83
2021/12/01 00:29:33;;;;;;;10.97;5.90;;;;;;;0.83;82.86;99033.53;5032998;28;20201;-83
2021/12/01 00:31:59;;;;;;;12.53;6.27;;;;;;;-0.57;84.05;98833.59;5032097;28;20169;-84
2021/12/01 00:34:25;;;;;;;11.43;6.40;;;;;;;-2.20;84.15;98579.22;5037119;28;20173;-84
2021/12/01 00:36:50;;;;;;;13.60;6.57;;;;;;;-0.43;84.28;98875.28;5038587;28;20210;-84
2021/12/01 00:39:16;;;;;;;14.07;6.90;;;;;;;0.13;85.14;98997.44;5047052;28;20444;-83
2021/12/01 00:41:41;;;;;;;10.50;5.90;;;;;;;0.15;85.07;98980.13;5048651;28;20205;-83
2021/12/01 00:44:09;;;;;;;13.97;6.50;;;;;;;-0.07;85.14;98972.63;5041605;28;20220;-85
2021/12/01 00:46:38;;;;;;;11.20;6.13;;;;;;;-0.98;85.36;98789.03;5033586;28;20166;-83
2021/12/01 00:49:03;;;;;;;14.50;7.77;;;;;;;-1.96;85.61;98640.66;5033476;28;20403;-83
2021/12/01 00:51:29;;;;;;;25.07;11.43;;;;;;;-1.60;85.92;98727.03;5033143;28;20413;-84
2021/12/01 00:53:54;;;;;;;24.70;12.60;;;;;;;-0.14;85.71;98938.94;5032796;28;20162;-84
2021/12/01 00:56:20;;;;;;;10.90;5.70;;;;;;;-2.73;85.30;98492.34;5031290;28;20225;-84
2021/12/01 00:58:45;;;;;;;10.97;5.93;;;;;;;-2.16;84.84;98596.06;5032521;28;20166;-83
2021/12/01 01:01:11;;;;;;;12.10;7.10;;;;;;;-1.79;84.74;98657.69;5032553;28;20216;-83
2021/12/01 01:03:36;;;;;;;14.33;8.17;;;;;;;-0.09;85.38;98946.78;5033395;28;20262;-83
2021/12/01 01:06:02;;;;;;;13.87;7.77;;;;;;;0.39;85.26;99015.22;5041107;28;20228;-83
2021/12/01 01:08:27;;;;;;;14.07;7.60;;;;;;;0.71;86.11;99074.09;5033439;28;20170;-83
2021/12/01 01:16:25;;;;;;;20.93;9.90;;;;;;;-0.03;87.99;98992.03;5033313;28;20399;-84
2021/12/01 01:18:53;;;;;;;21.23;9.80;;;;;;;0.37;88.71;99066.53;5015251;28;20420;-83
2021/12/01 01:21:18;;;;;;;16.73;8.83;;;;;;;-0.24;88.79;98945.59;5032606;28;20404;-83
2021/12/01 01:23:44;;;;;;;20.20;8.90;;;;;;;0.40;89.37;99051.84;5032409;28;20444;-84
2021/12/01 01:26:13;;;;;;;24.37;11.00;;;;;;;0.09;89.85;99044.34;5032554;28;20231;-84
2021/12/01 01:28:39;;;;;;;27.60;11.40;;;;;;;0.18;90.21;99035.13;5032460;28;20492;-84
2021/12/01 01:31:05;;;;;;;24.13;11.80;;;;;;;-0.07;89.84;99035.69;5039386;28;20408;-82
2021/12/01 01:33:31;;;;;;;29.00;12.17;;;;;;;0.03;90.34;99027.31;5046772;28;20428;-83
2021/12/01 01:35:57;;;;;;;34.50;13.77;;;;;;;-1.73;89.98;98713.53;5035342;28;20166;-83
2021/12/01 01:38:22;;;;;;;25.97;10.63;;;;;;;-2.80;88.68;98480.22;5033858;28;20178;-84
2021/12/01 01:40:48;;;;;;;19.17;9.30;;;;;;;-2.26;87.96;98563.00;5032575;28;20268;-84
2021/12/01 01:43:14;;;;;;;21.70;9.77;;;;;;;-0.42;88.70;98867.09;5032504;28;20182;-83
2021/12/01 01:45:39;;;;;;;19.97;9.33;;;;;;;-2.70;87.83;98482.69;5032803;28;20397;-83
2021/12/01 01:48:10;;;;;;;19.17;9.27;;;;;;;-0.33;88.58;98917.53;5015051;28;20178;-84
2021/12/01 01:50:38;;;;;;;21.30;11.33;;;;;;;-0.43;87.64;98867.84;5033521;28;20174;-84
2021/12/01 01:53:08;;;;;;;18.97;9.77;;;;;;;-0.89;86.33;98778.94;5036359;28;20393;-84
2021/12/01 01:55:34;;;;;;;16.67;9.27;;;;;;;0.48;86.50;98991.03;5036211;28;20420;-84
2021/12/01 01:58:00;;;;;;;18.30;9.53;;;;;;;0.52;86.53;98999.63;5018146;28;20432;-83
2021/12/01 02:00:27;;;;;;;19.20;9.53;;;;;;;0.63;85.70;99000.44;5036018;28;20547;-83
2021/12/01 02:02:54;;;;;;;21.70;10.40;;;;;;;-2.00;85.48;98553.50;5035558;28;20189;-84
2021/12/01 02:05:21;;;;;;;26.30;12.70;;;;;;;-1.26;85.17;98675.91;5035061;28;20401;-83
2021/12/01 02:07:47;;;;;;;27.13;12.37;;;;;;;-1.98;85.33;98528.06;5035365;28;20409;-83
2021/12/01 02:10:14;;;;;;;16.90;9.10;;;;;;;-1.38;84.95;98643.56;5035366;28;20483;-83
2021/12/01 02:12:40;;;;;;;15.33;8.47;;;;;;;0.59;84.45;98975.28;5035529;28;20170;-84
2021/12/01 02:15:07;;;;;;;22.63;10.47;;;;;;;-1.61;83.73;98640.03;5017357;28;20412;-83
2021/12/01 02:17:33;;;;;;;16.00;8.57;;;;;;;-0.65;84.18;98791.63;5035209;28;20197;-84
2021/12/01 02:19:58;;;;;;;13.10;7.07;;;;;;;-2.22;84.91;98550.94;5035947;28;20389;-83
2021/12/01 02:22:24;;;;;;;12.47;7.00;;;;;;;-2.53;85.77;98544.34;5037517;28;20189;-84
2021/12/01 02:24:49;;;;;;;15.53;7.60;;;;;;;-2.21;86.58;98632.00;5039847;28;20208;-83
2021/12/01 02:27:15;;;;;;;16.93;8.10;;;;;;;-0.16;86.55;98945.44;5037196;28;20209;-84
2021/12/01 02:29:40;;;;;;;17.87;9.53;;;;;;;0.36;87.16;99041.50;5037741;28;20169;-84
2021/12/01 02:32:06;;;;;;;16.33;8.97;;;;;;;-0.91;86.53;98793.75;5017329;28;20626;-85
2021/12/01 02:34:34;;;;;;;15.97;8.77;;;;;;;0.35;87.01;99025.72;5035170;28;20168;-84
2021/12/01 02:37:00;;;;;;;14.57;7.80;;;;;;;0.11;86.98;98998.91;5035033;28;20556;-84
2021/12/01 02:39:26;;;;;;;16.60;8.57;;;;;;;0.15;86.91;98985.97;5035068;28;20484;-83
2021/12/01 02:41:58;;;;;;;20.20;10.43;;;;;;;0.46;87.24;99002.50;5017249;28;20543;-84
2021/12/01 02:44:26;;;;;;;16.20;8.70;;;;;;;0.47;86.48;99000.88;5034662;28;20413;-84
2021/12/01 02:46:52;;;;;;;18.87;9.53;;;;;;;-1.70;86.41;98615.38;5034636;28;20405;-83
2021/12/01 02:49:22;;;;;;;14.03;8.13;;;;;;;0.54;85.79;98996.50;5034690;28;20463;-84
2021/12/01 02:51:49;;;;;;;15.10;7.50;;;;;;;-2.29;85.74;98557.78;5034920;28;20167;-83
2021/12/01 02:54:15;;;;;;;11.43;5.80;;;;;;;-2.41;85.87;98565.97;5016937;28;20500;-84
2021/12/01 02:56:46;;;;;;;13.80;5.57;;;;;;;-2.30;85.27;98556.03;5034357;28;20464;-83
2021/12/01 02:59:11;;;;;;;11.13;5.33;;;;;;;-0.12;84.39;98949.91;5034468;28;20444;-83
2021/12/01 03:01:37;;;;;;;11.40;5.50;;;;;;;-0.02;84.63;98948.97;5034003;28;20397;-83
2021/12/01 03:04:03;;;;;;;9.23;5.60;;;;;;;-1.31;83.64;98692.06;5033945;28;20603;-84
2021/12/01 03:06:29;;;;;;;9.47;5.60;;;;;;;-1.07;82.77;98712.97;5033004;28;20696;-83
2021/12/01 03:08:56;;;;;;;12.13;5.60;;;;;;;-0.03;81.98;98892.53;5034413;28;20162;-83
2021/12/01 03:11:21;;;;;;;15.07;8.13;;;;;;;-1.90;82.45;98591.53;5034963;28;20173;-83
2021/12/01 03:13:46;;;;;;;22.80;10.57;;;;;;;-0.63;83.99;98800.06;5038652;28;20405;-82
2021/12/01 03:16:15;;;;;;;17.93;9.40;;;;;;;0.40;84.06;98992.09;5036000;28;20170;-82
2021/12/01 03:18:40;;;;;;;12.77;6.93;;;;;;;-2.65;82.94;98466.56;5034721;28;20177;-83
2021/12/01 03:21:06;;;;;;;11.13;6.13;;;;;;;-1.98;82.03;98532.19;5035119;28;20408;-84
2021/12/01 03:23:31;;;;;;;12.37;5.83;;;;;;;0.88;81.87;98999.00;5035950;28;20200;-84
2021/12/01 03:25:56;;;;;;;11.03;5.40;;;;;;;-1.77;80.58;98531.34;5036185;28;20230;-84
2021/12/01 03:28:22;;;;;;;10.03;5.70;;;;;;;-0.37;80.13;98744.88;5035009;28;20502;-84
2021/12/01 03:30:48;;;;;;;10.40;5.53;;;;;;;-1.49;79.54;98531.81;5034248;28;20218;-84
2021/12/01 03:33:18;;;;;;;9.43;5.17;;;;;;;1.19;79.06;98998.00;5034114;28;20241;-85
2021/12/01 03:35:45;;;;;;;16.90;8.33;;;;;;;1.49;79.44;99004.34;5033949;28;20650;-85
2021/12/01 03:38:12;;;;;;;51.70;22.63;;;;;;;1.51;79.67;99015.31;5034011;28;20897;-84
2021/12/01 03:40:38;;;;;;;122.93;45.87;;;;;;;0.95;80.53;98889.06;5033641;28;20409;-84
2021/12/01 03:43:04;;;;;;;199.27;66.47;;;;;;;1.64;81.02;98993.84;5033329;28;20498;-83
2021/12/01 03:45:30;;;;;;;51.20;21.43;;;;;;;-1.39;79.42;98489.56;5015492;28;20613;-84
2021/12/01 03:47:56;;;;;;;51.57;23.90;;;;;;;-1.23;79.37;98544.56;5033723;28;20397;-83
2021/12/01 03:50:21;;;;;;;60.93;29.37;;;;;;;0.21;80.24;98759.13;5033944;28;20177;-83
2021/12/01 03:52:47;;;;;;;53.97;26.20;;;;;;;-0.73;80.33;98642.72;5034380;28;20629;-85
2021/12/01 03:55:12;;;;;;;39.27;19.17;;;;;;;-0.44;80.66;98699.56;5035591;28;20166;-82
2021/12/01 03:57:38;;;;;;;59.30;30.57;;;;;;;1.57;81.19;99018.22;5049521;28;20225;-82
2021/12/01 04:00:08;;;;;;;46.23;22.80;;;;;;;1.61;81.25;99015.22;5034752;28;20166;-83
2021/12/01 04:02:33;;;;;;;43.73;22.90;;;;;;;0.06;81.55;98773.78;5033933;28;20484;-81
2021/12/01 04:04:59;;;;;;;43.93;22.27;;;;;;;-0.75;82.00;98605.34;5033671;28;20415;-82
2021/12/01 04:07:24;;;;;;;39.83;21.17;;;;;;;0.25;81.75;98788.47;5032615;28;20170;-83
2021/12/01 04:09:51;;;;;;;33.10;17.30;;;;;;;-0.27;82.14;98676.78;5034516;28;20188;-84
2021/12/01 04:12:17;;;;;;;28.63;15.20;;;;;;;1.54;81.78;99003.91;5032618;28;20259;-83
2021/12/01 04:14:43;;;;;;;42.53;23.03;;;;;;;-0.86;82.08;98592.88;5034382;28;20766;-83
2021/12/01 04:17:09;;;;;;;41.43;21.63;;;;;;;1.27;81.54;98959.53;5035685;28;20408;-83
2021/12/01 04:19:34;;;;;;;27.83;13.73;;;;;;;-0.52;81.78;98648.44;5033602;28;20405;-83
2021/12/01 04:22:00;;;;;;;24.10;12.37;;;;;;;1.70;81.79;99039.16;5033439;28;20264;-83
2021/12/01 04:24:26;;;;;;;21.97;10.03;;;;;;;-0.07;82.10;98756.22;5034377;28;20220;-84
2021/12/01 04:26:52;;;;;;;21.63;10.47;;;;;;;0.85;82.71;98909.09;5032975;28;20401;-84
2021/12/01 04:29:17;;;;;;;23.90;10.63;;;;;;;0.77;83.50;98910.16;5033529;28;20184;-83
2021/12/01 04:31:43;;;;;;;20.07;8.90;;;;;;;-0.83;84.27;98675.09;5033085;28;20161;-84
2021/12/01 04:34:09;;;;;;;17.33;7.57;;;;;;;-0.77;85.31;98688.81;5031833;28;20706;-83
2021/12/01 04:36:41;;;;;;;17.73;6.93;;;;;;;1.05;86.32;99024.41;5033018;28;20656;-83
2021/12/01 04:39:10;;;;;;;22.23;9.80;;;;;;;0.19;86.53;98870.13;5032659;28;20154;-83
2021/12/01 04:41:41;;;;;;;18.60;9.87;;;;;;;0.97;87.17;98994.69;5032938;28;20401;-83
2021/12/01 04:44:10;;;;;;;25.27;13.33;;;;;;;-1.75;87.04;98556.25;5033247;28;20448;-84
2021/12/01 04:46:42;;;;;;;38.00;18.70;;;;;;;1.03;86.93;99005.13;5032913;28;20976;-84
2021/12/01 04:49:09;;;;;;;40.93;16.70;;;;;;;-1.06;87.23;98670.84;5033038;28;20397;-84
2021/12/01 04:51:35;;;;;;;39.53;16.20;;;;;;;0.25;87.09;98871.44;5033054;28;20475;-84
2021/12/01 04:54:02;;;;;;;17.50;7.60;;;;;;;-0.89;86.82;98699.47;5031613;28;20397;-83
2021/12/01 04:56:28;;;;;;;16.47;8.53;;;;;;;0.03;87.51;98853.16;5033194;28;20488;-83
2021/12/01 04:58:53;;;;;;;20.20;10.17;;;;;;;-1.59;86.86;98569.09;5033086;28;20920;-83
2021/12/01 05:01:18;;;;;;;48.67;23.60;;;;;;;-2.25;87.58;98446.63;5033265;28;20161;-84
2021/12/01 05:03:44;;;;;;;36.70;17.07;;;;;;;0.64;87.44;98934.91;5034282;28;20220;-84
2021/12/01 05:06:12;;;;;;;63.20;28.07;;;;;;;-1.96;86.73;98481.97;5034614;28;20336;-84
2021/12/01 05:08:38;;;;;;;61.83;26.33;;;;;;;-0.52;86.82;98708.09;5037143;28;20212;-84
2021/12/01 05:11:04;;;;;;;54.97;25.73;;;;;;;-0.69;86.65;98675.34;5032675;28;20411;-84
2021/12/01 05:13:29;;;;;;;83.23;34.80;;;;;;;0.55;86.36;98897.72;5051459;28;20412;-84
2021/12/01 05:15:55;;;;;;;79.90;33.97;;;;;;;0.35;85.43;98908.72;5056824;28;20213;-84
2021/12/01 05:18:21;;;;;;;88.33;38.07;;;;;;;0.32;85.92;98901.03;5044432;28;20170;-83
2021/12/01 05:20:47;;;;;;;89.43;37.67;;;;;;;0.78;86.07;98976.66;5041975;28;20166;-84
2021/12/01 05:23:15;;;;;;;51.17;22.47;;;;;;;-2.23;84.76;98421.97;5019968;28;20464;-83
2021/12/01 05:25:41;;;;;;;88.13;30.43;;;;;;;-0.43;84.42;98706.25;5033529;28;20162;-84
2021/12/01 05:28:07;;;;;;;46.87;21.17;;;;;;;-0.54;83.96;98682.22;5036280;28;20861;-84
2021/12/01 05:30:32;;;;;;;56.80;27.00;;;;;;;-1.08;84.49;98585.44;5036396;28;20420;-84
2021/12/01 05:33:04;;;;;;;75.27;34.53;;;;;;;-1.00;84.07;98590.97;5038508;28;20653;-84
2021/12/01 05:35:30;;;;;;;100.87;44.07;;;;;;;-1.47;84.20;98592.34;5038034;28;20181;-83
2021/12/01 05:37:55;;;;;;;72.57;36.87;;;;;;;0.71;85.04;98967.00;5036507;28;20757;-84
2021/12/01 05:40:20;;;;;;;46.33;23.73;;;;;;;1.12;85.21;99048.19;5035113;28;20174;-84
2021/12/01 05:42:46;;;;;;;23.37;11.17;;;;;;;0.17;85.00;98879.97;5026629;28;20193;-82
2021/12/01 05:45:11;;;;;;;37.13;17.97;;;;;;;-1.11;85.89;98701.91;5042831;28;20227;-84
2021/12/01 05:47:37;;;;;;;38.70;20.77;;;;;;;-0.52;86.19;98803.38;5037182;28;20216;-83
2021/12/01 05:50:03;;;;;;;42.13;22.50;;;;;;;0.38;86.20;98945.44;5036790;28;20162;-83
2021/12/01 05:52:29;;;;;;;37.33;20.80;;;;;;;-0.76;86.74;98727.84;5018386;28;20715;-85
2021/12/01 05:54:54;;;;;;;32.47;17.30;;;;;;;-2.23;86.29;98519.50;5036142;28;20401;-83
2021/12/01 05:57:20;;;;;;;35.67;18.40;;;;;;;0.04;86.58;98906.28;5020733;28;20336;-83
2021/12/01 05:59:45;;;;;;;42.73;22.13;;;;;;;0.10;85.87;98917.59;5035919;28;20182;-82
2021/12/01 06:02:11;;;;;;;38.37;19.23;;;;;;;0.77;85.52;98969.94;5038985;28;20618;-83
2021/12/01 06:04:36;;;;;;;32.77;17.57;;;;;;;-0.02;85.44;98822.97;5035284;28;20170;-83
2021/12/01 06:07:02;;;;;;;37.33;18.83;;;;;;;0.52;86.31;98903.34;5018063;28;20224;-84
2021/12/01 06:09:28;;;;;;;39.77;20.20;;;;;;;-0.83;85.20;98636.22;5017012;28;20174;-82
2021/12/01 06:11:53;;;;;;;110.43;41.67;;;;;;;-1.06;84.05;98576.50;5035404;28;20174;-83
2021/12/01 06:14:19;;;;;;;70.80;30.03;;;;;;;1.36;83.13;98989.25;5035407;28;20162;-83
2021/12/01 06:16:45;;;;;;;53.97;24.60;;;;;;;1.87;83.26;99054.50;5015619;28;20162;-83
2021/12/01 06:19:11;;;;;;;105.17;43.40;;;;;;;1.72;81.52;98980.28;5017025;28;20170;-84
2021/12/01 06:21:36;;;;;;;51.07;24.83;;;;;;;0.64;81.68;98768.06;5017028;28;20492;-85
2021/12/01 06:24:02;;;;;;;52.80;24.50;;;;;;;1.23;81.82;98876.97;5034627;28;20193;-87
2021/12/01 06:26:27;;;;;;;49.90;24.13;;;;;;;1.75;81.09;98957.19;5025391;28;20174;-83
2021/12/01 06:28:53;;;;;;;51.50;23.20;;;;;;;1.93;79.02;98960.09;5017004;28;20166;-84
2021/12/01 06:31:18;;;;;;;95.47;45.57;;;;;;;0.98;77.89;98760.59;5028891;28;20209;-84
2021/12/01 06:33:44;;;;;;;47.23;23.00;;;;;;;0.15;76.53;98550.53;5029684;28;20198;-83
2021/12/01 06:36:10;;;;;;;27.20;12.93;;;;;;;2.19;76.22;98865.41;5030933;28;20209;-84
2021/12/01 06:38:38;;;;;;;27.27;14.73;;;;;;;2.14;76.46;98824.28;5030330;28;20173;-83
2021/12/01 06:41:04;;;;;;;16.40;9.23;;;;;;;3.36;76.68;99054.88;5032125;28;20185;-85
2021/12/01 06:43:29;;;;;;;25.40;15.97;;;;;;;1.01;76.29;98740.00;5030364;28;20464;-83
2021/12/01 06:45:55;;;;;;;44.33;26.13;;;;;;;3.14;76.57;99060.88;5032223;28;20432;-83
2021/12/01 06:48:20;;;;;;;30.07;18.40;;;;;;;2.70;75.16;99023.75;5030718;28;20644;-83
2021/12/01 06:50:46;;;;;;;22.57;13.07;;;;;;;1.99;74.96;98830.75;5033058;28;20177;-84
2021/12/01 06:53:11;;;;;;;11.10;5.60;;;;;;;2.47;73.00;98828.16;5018482;28;20174;-85
2021/12/01 06:55:37;;;;;;;11.57;6.23;;;;;;;3.72;66.31;98577.50;5002256;28;20229;-83
2021/12/01 06:58:02;;;;;;;22.90;13.47;;;;;;;7.09;54.30;98696.25;5026218;28;20185;-84
2021/12/01 07:00:30;;;;;;;9.90;4.90;;;;;;;10.12;44.80;98867.84;5036058;28;20597;-84
2021/12/01 07:02:55;;;;;;;9.97;4.30;;;;;;;8.98;40.77;98783.41;5030568;28;20220;-83
2021/12/01 07:05:21;;;;;;;23.47;15.57;;;;;;;9.08;43.25;99113.72;5035061;28;20667;-84
2021/12/01 07:07:46;;;;;;;8.00;5.53;;;;;;;5.52;47.00;98742.88;5032128;28;20255;-85
2021/12/01 07:10:13;;;;;;;17.00;10.03;;;;;;;4.35;49.09;98711.34;5032524;28;20189;-83
2021/12/01 07:12:40;;;;;;;13.77;8.20;;;;;;;5.32;50.82;98960.13;5045095;28;20163;-82
2021/12/01 07:15:06;;;;;;;11.77;7.50;;;;;;;5.59;51.68;99113.94;5044482;28;20447;-85
2021/12/01 07:17:32;;;;;;;38.97;19.53;;;;;;;3.61;52.77;98779.59;5041813;28;20439;-83
2021/12/01 07:19:57;;;;;;;13.40;7.53;;;;;;;5.70;51.64;99103.75;5032340;28;20417;-85
2021/12/01 07:22:23;;;;;;;11.50;6.50;;;;;;;5.29;51.71;98985.91;5033910;28;20196;-84
2021/12/01 07:24:48;;;;;;;13.63;5.87;;;;;;;3.33;51.69;98698.63;5051403;28;20231;-84
2021/12/01 07:27:15;;;;;;;7.57;4.03;;;;;;;4.24;52.26;98854.28;5052982;28;20181;-83
2021/12/01 07:29:42;;;;;;;4.97;3.20;;;;;;;4.06;50.50;98748.91;5053948;28;20181;-83
2021/12/01 07:32:08;;;;;;;13.43;6.03;;;;;;;4.39;50.20;98782.56;5052316;28;20451;-84
2021/12/01 07:34:41;;;;;;;10.53;5.10;;;;;;;4.40;50.43;98839.38;5046106;28;20417;-84
2021/12/01 07:37:17;;;;;;;9.00;4.57;;;;;;;5.59;49.97;98973.34;5041145;28;20420;-85
2021/12/01 07:39:43;;;;;;;8.37;4.37;;;;;;;3.96;49.44;98704.94;5046416;28;20931;-84
2021/12/01 07:42:09;;;;;;;22.93;9.43;;;;;;;6.20;49.26;99025.34;5052933;28;20412;-84
2021/12/01 07:44:35;;;;;;;13.63;5.83;;;;;;;4.19;48.74;98688.72;5048509;28;20454;-83
2021/12/01 07:47:01;;;;;;;10.00;4.33;;;;;;;4.69;48.48;98781.78;5046371;28;20450;-84
2021/12/01 07:49:26;;;;;;;5.57;3.50;;;;;;;4.84;48.30;98795.16;5040258;28;20275;-84
2021/12/01 07:51:52;;;;;;;6.77;3.60;;;;;;;6.84;48.02;99103.44;5039975;28;20259;-84
2021/12/01 07:54:18;;;;;;;10.97;5.77;;;;;;;6.77;47.23;99055.25;5030224;28;20224;-84
2021/12/01 07:56:44;;;;;;;10.53;5.10;;;;;;;6.66;46.98;98984.28;5058420;28;20616;-84
2021/12/01 07:59:11;;;;;;;12.63;5.73;;;;;;;7.08;47.28;99103.88;5036494;28;20448;-85
2021/12/01 08:01:36;;;;;;;20.77;8.17;;;;;;;6.72;46.67;99004.72;5036869;28;20642;-85
2021/12/01 08:04:03;;;;;;;44.30;17.57;;;;;;;6.50;47.10;98889.59;5052926;28;20197;-83
2021/12/01 08:06:31;;;;;;;48.47;17.57;;;;;;;5.60;47.24;98789.31;5053787;28;20260;-86
2021/12/01 08:09:00;;;;;;;13.83;6.70;;;;;;;5.53;47.00;98767.16;5053543;28;20614;-84
2021/12/01 08:11:26;;;;;;;7.17;4.80;;;;;;;4.85;46.32;98680.69;5052021;28;20592;-84
2021/12/01 08:13:51;;;;;;;8.10;4.10;;;;;;;7.09;47.34;99052.75;5046979;28;20191;-84
2021/12/01 08:16:17;;;;;;;7.43;4.17;;;;;;;6.30;46.92;98847.47;5038880;28;20248;-84
2021/12/01 08:18:42;;;;;;;5.33;3.40;;;;;;;7.10;47.22;99002.50;5052180;28;20177;-84
2021/12/01 08:21:07;;;;;;;8.40;4.70;;;;;;;6.47;47.47;98878.50;5053141;28;20169;-82
2021/12/01 08:23:33;;;;;;;6.33;3.60;;;;;;;5.70;46.85;98746.31;5050995;28;20199;-83
2021/12/01 08:25:58;;;;;;;6.27;2.97;;;;;;;6.54;46.79;98878.00;5034406;28;20553;-82
2021/12/01 08:28:24;;;;;;;5.70;3.37;;;;;;;7.08;46.84;98957.91;5057324;28;20177;-83
2021/12/01 08:30:49;;;;;;;4.27;2.77;;;;;;;7.88;46.57;99051.69;5063221;28;20177;-83
2021/12/01 08:33:15;;;;;;;4.83;2.43;;;;;;;6.22;46.78;98783.41;5056285;28;20195;-83
2021/12/01 08:35:40;;;;;;;4.70;2.20;;;;;;;6.16;46.75;98769.66;5050108;28;20217;-84
2021/12/01 08:38:06;;;;;;;5.67;3.10;;;;;;;6.45;46.85;98759.41;5057397;28;20169;-83
2021/12/01 08:40:31;;;;;;;5.53;3.17;;;;;;;4.97;46.76;98504.16;5054099;28;20272;-83
2021/12/01 08:42:57;;;;;;;5.87;3.37;;;;;;;8.28;46.61;99002.41;5051394;28;20661;-84
2021/12/01 08:45:22;;;;;;;5.10;2.87;;;;;;;7.70;45.93;98891.31;5052106;28;20192;-84
2021/12/01 08:47:49;;;;;;;8.47;4.87;;;;;;;6.63;45.52;98710.00;5050485;28;20189;-84
2021/12/01 08:50:15;;;;;;;7.40;4.57;;;;;;;8.29;45.01;98973.88;5052350;28;20180;-83
2021/12/01 08:52:41;;;;;;;7.03;4.73;;;;;;;7.72;44.29;98814.13;5031090;28;20217;-83
2021/12/01 08:55:07;;;;;;;13.67;8.50;;;;;;;6.40;43.81;98532.09;5019741;28;20610;-83
2021/12/01 08:57:33;;;;;;;7.00;4.90;;;;;;;6.73;42.94;98566.28;5050937;28;20280;-84
2021/12/01 08:59:59;;;;;;;10.57;5.63;;;;;;;7.57;42.45;98627.09;5052385;28;20172;-84
2021/12/01 09:02:24;;;;;;;9.77;4.83;;;;;;;7.31;42.63;98559.63;5050944;28;20177;-83
2021/12/01 09:04:50;;;;;;;4.60;3.07;;;;;;;8.37;41.41;98680.03;5032784;28;20216;-84
2021/12/01 09:07:17;;;;;;;24.70;13.33;;;;;;;10.19;41.86;98995.44;5041632;28;20244;-83
2021/12/01 09:09:43;;;;;;;4.87;3.20;;;;;;;10.22;41.15;98958.44;5056700;28;20252;-83
2021/12/01 09:12:09;;;;;;;10.23;5.80;;;;;;;8.67;39.76;98665.25;5042738;28;20213;-83
2021/12/01 09:14:34;;;;;;;13.10;6.73;;;;;;;8.86;39.83;98624.78;5036822;28;20366;-82
2021/12/01 09:17:00;;;;;;;5.83;3.33;;;;;;;10.82;39.87;99030.75;5055967;28;20261;-85
2021/12/01 09:19:25;;;;;;;6.80;3.60;;;;;;;10.72;41.09;99061.56;5036114;28;20182;-83
2021/12/01 09:21:51;;;;;;;8.17;4.63;;;;;;;9.78;40.93;98814.31;5032122;28;20183;-84
2021/12/01 09:24:18;;;;;;;12.63;7.37;;;;;;;11.03;40.24;98922.59;5046520;28;20673;-84
2021/12/01 09:26:43;;;;;;;17.50;10.93;;;;;;;11.86;40.41;99064.00;5047207;28;20188;-85
2021/12/01 09:29:09;;;;;;;11.57;6.87;;;;;;;11.47;41.31;99062.59;5037511;28;20178;-84
2021/12/01 09:31:35;;;;;;;7.30;3.73;;;;;;;11.13;41.82;99066.47;5032229;28;20630;-83
2021/12/01 09:34:01;;;;;;;5.77;3.67;;;;;;;11.18;41.04;98943.38;5061568;28;20181;-83
2021/12/01 09:36:26;;;;;;;8.27;3.77;;;;;;;11.68;40.67;99055.72;5065690;28;20185;-83
2021/12/01 09:38:52;;;;;;;3.47;1.90;;;;;;;8.82;41.53;98656.59;5073897;28;20181;-83
2021/12/01 09:41:18;;;;;;;2.80;2.00;;;;;;;10.79;42.26;99037.34;5056055;28;20192;-83
2021/12/01 09:43:43;;;;;;;5.23;2.87;;;;;;;9.14;41.70;98715.03;5055726;28;20200;-82
2021/12/01 09:46:09;;;;;;;5.53;2.10;;;;;;;10.61;42.46;98961.59;5056137;28;20253;-83
2021/12/01 09:48:38;;;;;;;5.60;2.60;;;;;;;7.80;42.22;98536.50;5054667;28;20173;-83
2021/12/01 09:51:04;;;;;;;3.20;2.10;;;;;;;10.11;42.66;98928.50;5016027;28;20171;-83
2021/12/01 09:53:30;;;;;;;4.83;2.90;;;;;;;8.00;42.05;98541.53;5030297;28;20189;-82
2021/12/01 09:55:56;;;;;;;4.43;3.10;;;;;;;11.66;41.40;99009.19;5030031;28;20651;-83
2021/12/01 09:58:25;;;;;;;3.10;2.10;;;;;;;10.57;40.90;98843.34;5053410;28;20177;-83
2021/12/01 10:00:56;;;;;;;6.10;3.33;;;;;;;10.66;41.48;98901.84;5052807;28;20533;-84
2021/12/01 10:03:21;;;;;;;7.90;4.57;;;;;;;9.37;41.44;98674.66;5034855;28;20192;-82
2021/12/01 10:05:53;;;;;;;5.37;3.80;;;;;;;10.98;41.95;98994.16;5054064;28;20628;-83
2021/12/01 10:08:28;;;;;;;11.30;6.50;;;;;;;11.46;41.44;98972.16;5052427;28;20180;-84
2021/12/01 10:10:54;;;;;;;9.83;3.83;;;;;;;10.90;41.79;98869.81;5035215;28;20169;-84
2021/12/01 10:13:37;;;;;;;5.57;2.90;;;;;;;10.88;41.40;98901.81;5054137;28;20223;-83
2021/12/01 10:16:05;;;;;;;6.10;3.60;;;;;;;11.23;42.29;98977.31;5033716;28;20255;-83
2021/12/01 10:18:41;;;;;;;5.03;3.33;;;;;;;10.79;41.77;98909.09;5053521;28;20219;-83
2021/12/01 10:21:30;;;;;;;3.93;2.20;;;;;;;10.68;43.32;98967.75;5052499;28;20169;-83
2021/12/01 10:23:59;;;;;;;7.20;3.43;;;;;;;11.13;43.68;98970.22;5054807;28;20853;-82
2021/12/01 10:26:28;;;;;;;7.47;4.43;;;;;;;9.50;42.53;98588.41;5056408;28;20168;-83
2021/12/01 10:28:55;;;;;;;9.33;4.40;;;;;;;12.03;42.54;98963.06;5052940;28;20239;-84
2021/12/01 10:31:30;;;;;;;7.77;4.43;;;;;;;11.82;41.95;98960.72;5034992;28;20185;-84
2021/12/01 10:33:55;;;;;;;7.57;4.30;;;;;;;10.48;42.30;98737.59;5054589;28;20223;-82
2021/12/01 10:36:25;;;;;;;8.80;5.00;;;;;;;10.04;42.75;98728.47;5036619;28;20566;-85
2021/12/01 10:39:04;;;;;;;11.10;6.37;;;;;;;9.24;43.68;98578.19;5053636;28;20170;-83
2021/12/01 10:41:36;;;;;;;16.73;8.07;;;;;;;11.37;43.26;98865.44;5055138;28;20193;-82
2021/12/01 10:44:09;;;;;;;5.67;2.90;;;;;;;12.00;42.64;98951.16;5055841;28;20219;-82
2021/12/01 10:46:46;;;;;;;3.60;2.67;;;;;;;11.50;42.98;98931.78;5048272;28;20189;-83
2021/12/01 10:49:12;;;;;;;13.70;7.70;;;;;;;11.78;42.59;98909.03;5054412;28;20168;-83
2021/12/01 10:51:39;;;;;;;8.97;5.80;;;;;;;11.96;42.49;98883.38;5054075;28;20183;-82
2021/12/01 10:54:13;;;;;;;13.07;6.20;;;;;;;12.37;42.20;98913.34;5053698;28;20189;-82
2021/12/01 10:56:38;;;;;;;10.67;5.97;;;;;;;12.05;42.01;98855.75;5029459;28;20236;-82
2021/12/01 10:59:15;;;;;;;12.13;5.30;;;;;;;12.29;41.95;98929.16;5031385;28;20170;-81
2021/12/01 11:01:42;;;;;;;7.57;4.10;;;;;;;12.74;41.73;98957.56;5033973;28;20526;-82
2021/12/01 11:04:07;;;;;;;8.90;4.50;;;;;;;11.73;42.21;98793.91;5037762;28;20209;-82
2021/12/01 11:06:39;;;;;;;5.97;3.10;;;;;;;12.79;42.14;98953.47;5033776;28;20162;-83
2021/12/01 11:09:05;;;;;;;11.87;5.23;;;;;;;12.66;42.78;98953.94;5033481;28;20205;-83
2021/12/01 11:11:41;;;;;;;14.50;5.83;;;;;;;12.60;42.61;98948.69;5016004;28;20487;-81
2021/12/01 11:14:09;;;;;;;26.03;8.53;;;;;;;11.91;43.09;98816.44;5016211;28;20236;-82
2021/12/01 11:16:39;;;;;;;20.70;7.83;;;;;;;12.02;42.33;98774.47;5016344;28;20182;-81
2021/12/01 11:19:05;;;;;;;23.13;7.83;;;;;;;12.39;43.18;98931.16;5034514;28;20173;-81
2021/12/01 11:21:31;;;;;;;26.83;10.77;;;;;;;12.41;43.38;98902.44;5035106;28;20252;-82
2021/12/01 11:24:04;;;;;;;12.87;5.67;;;;;;;12.21;42.55;98862.97;5014709;28;20654;-82
2021/12/01 11:26:34;;;;;;;26.03;10.40;;;;;;;12.78;42.86;98954.25;5033921;28;20205;-80
2021/12/01 11:29:03;;;;;;;9.90;5.20;;;;;;;11.97;43.30;98829.28;5047143;28;20184;-81
2021/12/01 11:31:33;;;;;;;5.90;2.90;;;;;;;12.55;42.54;98907.06;5053295;28;20607;-82